KVKS/VKS METAR and TAF weather

Enter ICAO airport designator
Station Type Date Time Source
KVKS METAR 2019/02/17 16:35 UTC NOAA

KVKS 171635Z AUTO 31008KT 2SM BR OVC006 12/12 A2983 RMK A01


Station Type Date Time Source
KVKS Decoded METAR 2019/02/17 16:35 UTC NOAA

Vicksburg Municipal, MS, United States (KVKS) 32-14N 090-56W
Feb 17, 2019 - 11:35 AM EST / 2019.02.17 1635 UTC
Wind: from the NW (310 degrees) at 9 MPH (8 KT):0
Visibility: 2 mile(s):0
Sky conditions: overcast
Weather: mist
Temperature: 53 F (12 C)
Dew Point: 53 F (12 C)
Relative Humidity: 100%
Pressure (altimeter): 29.83 in. Hg (1010 hPa)
ob: KVKS 171635Z AUTO 31008KT 2SM BR OVC006 12/12 A2983 RMK A01
cycle: 16

Station Type Date Time Source
KVKS TAF UTC NOAA

Error!


Example: see airport list